Nelsonia, Virginia
Current Conditions -  °F | °C
As of 2:54 PM on Thursday 30 Oct 2014 (Local Time) from KWAL Reporting Station
Few Clouds Few Clouds  
Wind Chill: 63°   Ceiling: Unl
Heat Index: 63°   Visibility: 10mi
Dew Point: 42°   Wind: 5mph
Humidity: 46%   Direction: NA
Pressure: 29.99"   Gusts: NA
Location:  37.82°N, 75.59°W
Report Text: KWAL 301854Z VRB04KT 10SM FEW045 17/06 A2999 RMK AO2 SLP153 T01720056
Loading
Personal Weather Stations






























Interactive Weather Map
Tropical Storm Tracking
New forecast layout! Learn more

10-Day Weather Forecast

Advertisements
Track Severe Weather on mobile